Time;durP1;ratioP1;P1;durP2;ratioP2;P2;SDS_P1;SDS_P2;PMS_P1;PMS_P2;Temp;Humidity;BMP_temperature;BMP_pressure;BME280_temperature;BME280_humidity;BME280_pressure;Samples;Min_cycle;Max_cycle;Signal;HPM_P1;HPM_P2
2023/05/19 04:22:33;;;;;;;3.85;2.15;;;;;;;9.08;87.34;100790.69;5089366;28;20332;-67
2023/05/19 04:24:59;;;;;;;4.65;2.70;;;;;;;9.11;87.06;100797.50;5089519;28;20036;-67
2023/05/19 04:27:26;;;;;;;7.82;2.85;;;;;;;9.15;86.72;100793.56;5068071;28;20131;-67
2023/05/19 04:29:53;;;;;;;3.58;2.60;;;;;;;9.18;86.90;100788.78;5067604;28;20036;-67
2023/05/19 04:32:19;;;;;;;6.28;2.78;;;;;;;9.23;86.40;100786.50;5073545;28;20032;-67
2023/05/19 04:34:44;;;;;;;5.63;2.90;;;;;;;9.18;86.41;100794.09;5066600;28;20496;-66
2023/05/19 04:37:15;;;;;;;5.15;2.50;;;;;;;9.19;87.10;100797.59;5047404;28;20064;-66
2023/05/19 04:39:45;;;;;;;3.50;2.50;;;;;;;9.20;86.66;100804.59;5047851;28;20048;-66
2023/05/19 04:42:12;;;;;;;5.10;2.78;;;;;;;9.30;86.44;100804.50;5060535;28;20562;-66
2023/05/19 04:44:38;;;;;;;6.80;3.00;;;;;;;9.33;86.15;100794.44;5058762;28;20087;-66
2023/05/19 04:47:07;;;;;;;7.38;3.13;;;;;;;9.40;86.15;100798.16;5064538;28;20064;-65
2023/05/19 04:49:37;;;;;;;3.72;2.92;;;;;;;9.44;86.09;100806.63;5071679;28;20036;-66
2023/05/19 04:52:11;;;;;;;4.25;2.58;;;;;;;9.49;85.65;100807.84;5073792;28;20111;-66
2023/05/19 04:54:38;;;;;;;4.90;3.30;;;;;;;9.45;86.32;100808.31;5067155;28;20043;-59
2023/05/19 04:57:04;;;;;;;6.68;3.00;;;;;;;9.49;86.45;100804.34;5073983;28;20036;-60
2023/05/19 04:59:33;;;;;;;4.60;2.97;;;;;;;9.46;86.13;100810.00;5085074;28;20044;-63
2023/05/19 05:01:59;;;;;;;4.32;2.70;;;;;;;9.51;85.80;100805.03;5076614;28;20028;-65
2023/05/19 05:04:27;;;;;;;4.53;2.90;;;;;;;9.51;85.77;100805.03;5067315;28;20087;-62
2023/05/19 05:06:52;;;;;;;8.48;3.05;;;;;;;9.51;85.84;100802.38;5067038;28;20453;-62
2023/05/19 05:09:19;;;;;;;4.18;3.10;;;;;;;9.40;86.10;100806.13;5066798;28;20045;-63
2023/05/19 05:11:45;;;;;;;4.65;2.70;;;;;;;9.54;85.78;100811.88;5078982;28;20132;-61
2023/05/19 05:14:11;;;;;;;8.18;3.03;;;;;;;9.67;84.85;100812.34;5064273;28;20039;-61
2023/05/19 05:16:37;;;;;;;7.07;2.88;;;;;;;9.73;84.53;100812.56;5083891;28;20025;-61
2023/05/19 05:19:04;;;;;;;7.22;3.95;;;;;;;9.60;85.32;100805.97;5066565;28;20123;-63
2023/05/19 05:21:30;;;;;;;4.28;2.70;;;;;;;9.76;84.86;100808.75;5066560;28;20463;-62
2023/05/19 05:23:58;;;;;;;4.65;3.20;;;;;;;9.81;84.73;100810.94;5066757;28;20497;-64
2023/05/19 05:26:29;;;;;;;3.97;2.65;;;;;;;9.80;84.75;100810.13;5066674;28;20045;-64
2023/05/19 05:28:55;;;;;;;7.45;2.75;;;;;;;9.65;85.03;100811.63;5067661;28;20490;-63
2023/05/19 05:31:21;;;;;;;7.43;3.33;;;;;;;9.71;84.85;100819.00;5067921;28;20028;-63
2023/05/19 05:33:46;;;;;;;4.80;3.13;;;;;;;9.68;84.41;100814.84;5054181;28;20060;-63
2023/05/19 05:36:13;;;;;;;6.68;2.78;;;;;;;9.70;84.98;100809.34;5053422;28;20037;-61
2023/05/19 05:38:38;;;;;;;4.95;2.88;;;;;;;9.61;85.60;100812.94;5052991;28;20119;-62
2023/05/19 05:41:04;;;;;;;5.20;2.72;;;;;;;9.71;84.74;100813.69;5053212;28;20040;-63
2023/05/19 05:43:31;;;;;;;8.37;3.47;;;;;;;9.56;85.95;100810.75;5053335;28;20094;-63
2023/05/19 05:45:59;;;;;;;4.30;3.00;;;;;;;9.67;85.54;100807.84;5053323;28;20059;-64
2023/05/19 05:48:25;;;;;;;3.33;2.78;;;;;;;9.75;85.35;100807.06;5054160;28;20084;-64
2023/05/19 05:50:53;;;;;;;4.28;3.22;;;;;;;9.82;84.88;100809.94;5053080;28;20391;-63
2023/05/19 05:53:25;;;;;;;7.55;3.70;;;;;;;9.85;84.70;100802.50;5053002;28;20036;-64
2023/05/19 05:55:52;;;;;;;5.22;3.60;;;;;;;9.80;84.26;100796.81;5052952;28;20033;-65
2023/05/19 05:58:20;;;;;;;;;;;;;;;9.95;84.17;100805.06;5053308;28;20072;-63
2023/05/19 06:00:48;;;;;;;9.77;4.95;;;;;;;10.05;84.49;100809.31;5086658;28;19917;-63
2023/05/19 06:03:15;;;;;;;7.30;3.83;;;;;;;10.17;83.91;100804.56;5052901;28;20041;-63
2023/05/19 06:05:41;;;;;;;9.32;3.45;;;;;;;10.22;83.72;100801.41;5052944;28;20440;-63
2023/05/19 06:08:08;;;;;;;7.57;3.78;;;;;;;10.30;82.47;100805.00;5052514;28;20094;-64
2023/05/19 06:10:35;;;;;;;5.85;3.28;;;;;;;10.48;81.87;100802.25;5052863;28;20168;-64
2023/05/19 06:13:01;;;;;;;4.22;2.80;;;;;;;10.51;81.52;100801.94;5052775;28;20044;-64
2023/05/19 06:15:27;;;;;;;6.70;3.22;;;;;;;10.58;80.39;100797.66;5052744;28;20041;-64
2023/05/19 06:18:10;;;;;;;8.65;3.22;;;;;;;10.60;79.92;100803.63;5053504;28;20097;-65
2023/05/19 06:20:38;;;;;;;5.78;3.20;;;;;;;10.73;79.86;100792.53;5052382;28;20124;-62
2023/05/19 06:23:03;;;;;;;9.70;3.05;;;;;;;10.82;78.00;100788.06;5053968;28;20124;-65
2023/05/19 06:25:29;;;;;;;3.67;2.58;;;;;;;11.00;78.32;100790.63;5052399;28;20445;-63
2023/05/19 06:27:55;;;;;;;4.72;3.03;;;;;;;11.03;76.43;100796.47;5052215;28;20041;-64
2023/05/19 06:30:22;;;;;;;6.45;3.95;;;;;;;10.96;76.43;100784.78;5052506;28;20032;-65
2023/05/19 06:33:05;;;;;;;6.25;3.00;;;;;;;11.18;75.43;100796.66;5052616;28;20122;-63
2023/05/19 06:35:31;;;;;;;10.85;3.25;;;;;;;11.17;76.17;100784.34;5052188;28;20033;-64
2023/05/19 06:37:57;;;;;;;5.68;3.15;;;;;;;11.20;76.09;100789.31;5052077;28;20043;-63
2023/05/19 06:40:22;;;;;;;7.38;2.97;;;;;;;11.29;76.97;100796.34;5052146;28;20040;-64
2023/05/19 06:42:48;;;;;;;7.15;3.17;;;;;;;11.43;76.62;100797.53;5051979;28;20501;-64
2023/05/19 06:45:34;;;;;;;5.07;3.05;;;;;;;11.48;75.14;100800.56;5051838;28;20059;-64
2023/05/19 06:48:03;;;;;;;4.00;3.05;;;;;;;11.65;74.63;100804.88;5051900;28;20551;-63
2023/05/19 06:50:28;;;;;;;3.95;2.30;;;;;;;11.79;72.38;100805.22;5045851;28;20034;-64
2023/05/19 06:52:54;;;;;;;3.60;2.42;;;;;;;11.83;71.92;100796.75;5051794;28;20087;-65
2023/05/19 06:55:19;;;;;;;15.35;2.90;;;;;;;11.84;72.46;100801.06;5033252;28;20469;-63
2023/05/19 06:57:47;;;;;;;2.90;2.30;;;;;;;12.00;73.47;100789.56;5015359;28;20033;-62
2023/05/19 07:00:15;;;;;;;3.92;2.70;;;;;;;12.12;74.04;100782.84;5033394;28;20033;-60
2023/05/19 07:02:44;;;;;;;3.80;2.92;;;;;;;12.12;70.82;100800.69;5034684;28;20553;-64
2023/05/19 07:05:09;;;;;;;3.83;2.92;;;;;;;12.29;69.93;100794.31;5031838;28;20065;-63
2023/05/19 07:07:35;;;;;;;4.35;2.90;;;;;;;12.20;69.70;100790.84;5031622;28;20044;-63
2023/05/19 07:10:01;;;;;;;4.25;2.55;;;;;;;12.21;70.14;100781.00;5031796;28;20125;-63
2023/05/19 07:12:28;;;;;;;3.45;2.45;;;;;;;12.44;69.16;100783.75;5031631;28;20034;-63
2023/05/19 07:14:55;;;;;;;5.13;2.50;;;;;;;12.58;70.12;100783.03;5031911;28;20044;-63
2023/05/19 07:17:21;;;;;;;4.70;3.20;;;;;;;12.69;68.09;100784.50;5031363;28;20037;-62
2023/05/19 07:19:47;;;;;;;5.30;2.70;;;;;;;12.74;68.33;100780.28;5031491;28;20048;-62
2023/05/19 07:22:13;;;;;;;7.88;2.67;;;;;;;12.73;67.92;100783.97;5031414;28;20106;-60
2023/05/19 07:24:39;;;;;;;6.88;3.00;;;;;;;12.77;68.59;100776.44;5031592;28;20037;-61
2023/05/19 07:27:05;;;;;;;4.68;2.53;;;;;;;12.91;68.18;100780.19;5032266;28;20092;-63
2023/05/19 07:29:30;;;;;;;5.80;2.25;;;;;;;12.97;67.09;100771.47;5032703;28;20072;-62
2023/05/19 07:31:56;;;;;;;5.03;2.45;;;;;;;13.11;66.72;100773.41;5032523;28;20080;-62
2023/05/19 07:34:24;;;;;;;4.57;2.72;;;;;;;13.16;67.00;100771.03;5032505;28;20041;-62
2023/05/19 07:36:53;;;;;;;4.65;2.60;;;;;;;13.23;67.26;100765.81;5032227;28;20033;-63
2023/05/19 07:39:18;;;;;;;5.93;2.45;;;;;;;13.35;65.77;100764.41;5041730;28;20037;-64
2023/05/19 07:41:44;;;;;;;8.88;2.83;;;;;;;13.50;66.55;100759.13;5040802;28;20037;-62
2023/05/19 07:44:09;;;;;;;2.97;2.10;;;;;;;13.61;66.86;100761.34;5042319;28;20033;-62
2023/05/19 07:46:36;;;;;;;6.50;2.42;;;;;;;13.59;65.87;100760.72;5031199;28;20041;-62
2023/05/19 07:49:02;;;;;;;3.03;2.17;;;;;;;13.88;63.91;100767.13;5032040;28;20041;-62
2023/05/19 07:51:27;;;;;;;4.43;2.72;;;;;;;13.89;64.08;100761.63;5032179;28;20041;-62
2023/05/19 07:53:53;;;;;;;2.15;1.92;;;;;;;13.92;64.17;100747.84;5032234;28;20117;-62
2023/05/19 07:56:18;;;;;;;4.05;2.40;;;;;;;14.00;64.31;100760.31;5031896;28;20052;-62
2023/05/19 07:58:43;;;;;;;6.03;2.40;;;;;;;14.24;62.75;100757.41;5031952;28;20049;-62
2023/05/19 08:01:09;;;;;;;6.43;2.97;;;;;;;14.29;62.56;100759.53;5032229;28;20375;-63
2023/05/19 08:03:34;;;;;;;9.35;4.40;;;;;;;14.14;62.44;100751.47;5036559;28;20041;-63
2023/05/19 08:06:00;;;;;;;8.10;3.08;;;;;;;14.30;63.57;100737.91;5050773;28;20037;-63
2023/05/19 08:08:25;;;;;;;6.15;3.13;;;;;;;14.58;62.33;100747.97;5044210;28;20037;-63
2023/05/19 08:10:51;;;;;;;4.32;2.60;;;;;;;14.78;61.71;100746.34;5042016;28;20034;-62
2023/05/19 08:13:16;;;;;;;6.13;2.95;;;;;;;14.91;60.50;100741.16;5042966;28;20074;-63
2023/05/19 08:15:41;;;;;;;4.32;2.63;;;;;;;14.96;61.66;100739.75;5051901;28;20485;-64
2023/05/19 08:18:07;;;;;;;5.63;2.67;;;;;;;15.15;59.46;100726.53;5051390;28;20045;-64
2023/05/19 08:20:32;;;;;;;5.93;2.42;;;;;;;15.15;59.62;100731.91;5051690;28;20033;-63
2023/05/19 08:22:58;;;;;;;3.85;2.75;;;;;;;15.33;59.48;100725.28;5051905;28;20478;-62
2023/05/19 08:25:23;;;;;;;3.78;2.65;;;;;;;15.47;58.34;100730.56;5050397;28;20102;-62
2023/05/19 08:27:49;;;;;;;4.72;2.05;;;;;;;15.65;58.04;100727.44;5051548;28;20069;-63
2023/05/19 08:30:15;;;;;;;7.28;3.05;;;;;;;15.63;57.19;100731.31;5051676;28;20492;-64
2023/05/19 08:32:40;;;;;;;7.47;2.72;;;;;;;15.28;57.44;100725.03;5051734;28;20033;-63
2023/05/19 08:35:06;;;;;;;4.30;2.30;;;;;;;15.48;57.56;100710.75;5051707;28;20041;-64
2023/05/19 08:37:32;;;;;;;8.82;2.33;;;;;;;15.66;56.30;100706.78;5051529;28;20044;-64
2023/05/19 08:39:58;;;;;;;4.35;2.22;;;;;;;15.82;56.27;100711.84;5051812;28;20037;-62
2023/05/19 08:42:23;;;;;;;4.63;2.38;;;;;;;15.87;57.63;100720.16;5051608;28;20041;-63
2023/05/19 08:44:49;;;;;;;7.32;2.53;;;;;;;16.04;56.87;100714.47;5050753;28;20049;-64
2023/05/19 08:47:14;;;;;;;8.27;2.55;;;;;;;16.19;56.39;100715.19;5051397;28;20060;-63
2023/05/19 08:49:44;;;;;;;4.35;2.15;;;;;;;16.34;55.09;100713.19;5051665;28;20045;-64
2023/05/19 08:52:22;;;;;;;4.55;2.88;;;;;;;16.39;54.79;100717.97;5051013;28;20061;-64
2023/05/19 08:55:12;;;;;;;7.28;2.47;;;;;;;16.64;53.85;100710.22;5051510;28;20040;-64
2023/05/19 08:57:40;;;;;;;7.28;2.13;;;;;;;16.84;53.96;100713.00;5051230;28;20037;-63
2023/05/19 09:00:10;;;;;;;5.43;2.75;;;;;;;16.89;53.22;100708.69;5051456;28;20032;-63
2023/05/19 09:02:37;;;;;;;4.07;2.20;;;;;;;17.05;52.02;100708.28;5050152;28;20033;-62
2023/05/19 09:05:04;;;;;;;5.35;2.60;;;;;;;16.97;51.54;100688.81;5051345;28;20103;-63
2023/05/19 09:07:33;;;;;;;7.85;2.88;;;;;;;17.18;50.77;100696.72;5051668;28;20033;-63
2023/05/19 09:10:00;;;;;;;5.78;2.67;;;;;;;17.34;50.14;100698.16;5055125;28;20065;-63
2023/05/19 09:12:25;;;;;;;7.35;2.58;;;;;;;17.53;50.52;100699.19;5055045;28;20036;-63
2023/05/19 09:14:51;;;;;;;5.10;2.38;;;;;;;17.53;49.35;100693.81;5055365;28;20098;-64
2023/05/19 09:17:17;;;;;;;4.07;2.03;;;;;;;17.92;48.50;100698.34;5054418;28;20087;-63
2023/05/19 09:19:49;;;;;;;5.43;2.55;;;;;;;17.90;47.20;100689.66;5054915;28;20675;-64
2023/05/19 09:22:20;;;;;;;3.45;1.92;;;;;;;18.38;45.74;100692.00;5054800;28;20037;-63
2023/05/19 09:24:46;;;;;;;6.03;2.88;;;;;;;18.34;46.07;100691.63;5054798;28;20063;-63
2023/05/19 09:27:21;;;;;;;4.18;2.17;;;;;;;18.42;45.98;100682.44;5054456;28;20037;-63
2023/05/19 09:29:47;;;;;;;7.75;2.70;;;;;;;17.92;45.57;100678.66;5054675;28;20041;-64
2023/05/19 09:32:23;;;;;;;5.28;1.83;;;;;;;18.69;45.25;100681.31;5054580;28;20040;-63
2023/05/19 09:34:49;;;;;;;6.38;2.38;;;;;;;18.32;45.82;100693.72;5054780;28;20065;-64
2023/05/19 09:37:15;;;;;;;5.90;2.75;;;;;;;18.87;44.38;100679.75;5053133;28;20041;-64
2023/05/19 09:39:47;;;;;;;6.45;2.05;;;;;;;18.92;45.02;100682.66;5054566;28;20044;-64
2023/05/19 09:42:13;;;;;;;4.22;2.20;;;;;;;18.82;45.51;100679.56;5054498;28;20033;-64
2023/05/19 09:44:40;;;;;;;5.72;2.55;;;;;;;18.89;45.90;100681.19;5054386;28;20033;-64
2023/05/19 09:47:08;;;;;;;2.97;1.98;;;;;;;18.87;44.60;100685.97;5054110;28;20048;-65
2023/05/19 09:49:33;;;;;;;4.57;2.10;;;;;;;18.81;45.25;100680.63;5054389;28;20064;-65
2023/05/19 09:52:02;;;;;;;3.75;2.03;;;;;;;18.85;44.94;100673.75;5053118;28;20072;-65
2023/05/19 09:54:30;;;;;;;2.80;2.10;;;;;;;18.74;45.49;100671.75;5054190;28;20033;-64
2023/05/19 09:57:00;;;;;;;5.40;2.10;;;;;;;18.45;45.93;100671.22;5053946;28;20505;-62
2023/05/19 09:59:28;;;;;;;3.78;1.95;;;;;;;18.73;44.89;100665.53;5054147;28;20032;-63
2023/05/19 10:01:58;;;;;;;4.38;2.10;;;;;;;18.48;44.12;100668.09;5054259;28;20385;-63
2023/05/19 10:04:28;;;;;;;3.45;2.15;;;;;;;18.68;44.32;100663.47;5054124;28;20052;-63
2023/05/19 10:06:54;;;;;;;2.63;1.73;;;;;;;18.73;44.03;100662.00;5052719;28;20040;-63
2023/05/19 10:09:24;;;;;;;4.10;2.30;;;;;;;18.64;44.56;100655.97;5054109;28;20037;-64
2023/05/19 10:11:54;;;;;;;5.65;2.05;;;;;;;18.64;44.01;100662.19;5053999;28;20072;-63
2023/05/19 10:14:23;;;;;;;4.78;1.92;;;;;;;18.91;44.02;100654.81;5054000;28;20044;-62
2023/05/19 10:16:54;;;;;;;5.47;2.22;;;;;;;18.66;43.41;100654.78;5053875;28;20488;-63
2023/05/19 10:19:22;;;;;;;2.72;1.80;;;;;;;18.75;43.37;100652.63;5053861;28;20068;-63
2023/05/19 10:21:47;;;;;;;5.25;1.80;;;;;;;18.51;43.83;100650.66;5052576;28;20064;-63
2023/05/19 10:24:12;;;;;;;4.82;1.80;;;;;;;18.67;42.97;100637.53;5053834;28;20140;-63
2023/05/19 10:27:07;;;;;;;3.10;1.83;;;;;;;19.42;42.61;100651.09;5053823;28;20043;-64
2023/05/19 10:29:36;;;;;;;2.78;1.63;;;;;;;19.91;41.17;100654.81;5053695;28;20041;-64
2023/05/19 10:32:09;;;;;;;5.43;1.85;;;;;;;19.94;39.84;100650.81;5053578;28;20405;-64
2023/05/19 10:34:44;;;;;;;3.50;1.83;;;;;;;19.43;40.87;100654.59;5053885;28;20688;-64
2023/05/19 10:37:23;;;;;;;4.32;1.88;;;;;;;19.19;41.96;100634.69;5053272;28;20044;-64
2023/05/19 10:39:50;;;;;;;3.78;2.00;;;;;;;19.70;42.62;100650.66;5053684;28;20043;-64
2023/05/19 10:42:24;;;;;;;4.25;2.08;;;;;;;19.84;41.47;100651.34;5053739;28;20445;-64
2023/05/19 10:45:11;;;;;;;7.35;3.92;;;;;;;19.76;41.42;100651.66;5053683;28;20386;-64
2023/05/19 10:47:39;;;;;;;;;;;;;;;20.28;40.60;100652.91;5053627;28;20079;-64
2023/05/19 10:50:05;;;;;;;2.20;1.67;;;;;;;20.10;40.56;100652.94;5053330;28;20374;-65
2023/05/19 10:52:36;;;;;;;2.88;1.70;;;;;;;20.18;42.27;100654.50;5053253;28;20029;-64
2023/05/19 10:55:01;;;;;;;2.55;1.38;;;;;;;20.17;40.79;100645.56;5053365;28;20067;-62
2023/05/19 10:57:27;;;;;;;2.65;1.80;;;;;;;20.02;42.49;100650.53;5052762;28;20098;-61
2023/05/19 10:59:54;;;;;;;4.57;1.70;;;;;;;20.45;40.93;100655.84;5053198;28;20025;-56
2023/05/19 11:02:39;;;;;;;5.95;1.90;;;;;;;20.68;40.63;100644.31;5053236;28;20039;-67
2023/05/19 11:05:13;;;;;;;5.20;1.70;;;;;;;20.70;40.03;100649.47;5053050;28;20044;-64
2023/05/19 11:07:43;;;;;;;3.05;1.83;;;;;;;20.02;40.79;100645.13;5052690;28;20040;-65
2023/05/19 11:10:09;;;;;;;5.40;1.95;;;;;;;20.11;41.62;100641.06;5052930;28;20076;-66
2023/05/19 11:12:44;;;;;;;4.88;1.65;;;;;;;19.43;42.56;100638.41;5052841;28;20393;-65
2023/05/19 11:15:13;;;;;;;2.88;1.80;;;;;;;19.29;42.79;100643.09;5052849;28;20032;-65
2023/05/19 11:17:41;;;;;;;3.67;1.70;;;;;;;19.59;42.39;100634.34;5052506;28;20039;-65
2023/05/19 11:20:10;;;;;;;4.78;2.10;;;;;;;19.57;42.38;100642.66;5052729;28;20051;-65
2023/05/19 11:22:35;;;;;;;3.30;1.83;;;;;;;19.67;42.70;100629.47;5052781;28;20041;-64
2023/05/19 11:25:02;;;;;;;2.88;1.42;;;;;;;19.50;43.60;100631.09;5052756;28;20029;-64
2023/05/19 11:27:30;;;;;;;4.22;2.25;;;;;;;19.71;43.81;100630.69;5052221;28;20043;-66
2023/05/19 11:30:08;;;;;;;3.50;2.00;;;;;;;19.40;43.11;100630.75;5052496;28;20379;-65
2023/05/19 11:32:34;;;;;;;3.13;2.00;;;;;;;19.68;44.02;100630.28;5052426;28;20061;-65
2023/05/19 11:35:01;;;;;;;4.78;2.03;;;;;;;19.69;43.81;100623.84;5052524;28;20037;-64
2023/05/19 11:37:30;;;;;;;3.78;1.83;;;;;;;19.47;43.11;100626.13;5052003;28;20115;-65
2023/05/19 11:39:57;;;;;;;3.20;1.85;;;;;;;19.47;43.54;100632.34;5052440;28;20036;-65
2023/05/19 11:42:22;;;;;;;2.33;1.75;;;;;;;19.00;44.27;100617.59;5052356;28;20037;-64
2023/05/19 11:44:48;;;;;;;2.20;1.40;;;;;;;18.75;43.94;100624.81;5052248;28;20504;-65
2023/05/19 11:47:14;;;;;;;3.17;1.52;;;;;;;18.47;45.43;100625.19;5051880;28;20029;-66
2023/05/19 11:49:53;;;;;;;4.97;1.75;;;;;;;18.69;44.36;100635.44;5052238;28;20094;-66
2023/05/19 11:52:22;;;;;;;6.57;1.75;;;;;;;18.53;44.98;100632.41;5052490;28;20460;-64
2023/05/19 11:54:48;;;;;;;2.78;1.50;;;;;;;18.34;45.91;100631.47;5052120;28;20059;-64
2023/05/19 11:57:14;;;;;;;5.30;1.80;;;;;;;18.25;46.65;100627.34;5051580;28;20132;-65
2023/05/19 11:59:44;;;;;;;2.38;1.50;;;;;;;18.26;46.07;100629.00;5051947;28;20124;-65
2023/05/19 12:02:27;;;;;;;4.20;1.80;;;;;;;18.20;46.09;100627.19;5051971;28;20040;-65
2023/05/19 12:04:53;;;;;;;5.22;1.85;;;;;;;18.27;46.46;100630.66;5051947;28;20405;-64
2023/05/19 12:07:22;;;;;;;3.60;1.60;;;;;;;18.36;46.59;100629.38;5051546;28;20045;-65
2023/05/19 12:09:49;;;;;;;2.58;2.25;;;;;;;18.41;47.24;100630.38;5051866;28;20094;-65
2023/05/19 12:12:17;;;;;;;3.22;1.70;;;;;;;18.08;47.40;100627.00;5051563;28;20037;-54
2023/05/19 12:14:44;;;;;;;2.60;1.80;;;;;;;18.23;47.70;100632.94;5051771;28;20097;-54
2023/05/19 12:17:16;;;;;;;2.47;1.80;;;;;;;18.03;47.96;100635.72;5051371;28;20048;-62
2023/05/19 12:19:46;;;;;;;3.08;1.40;;;;;;;18.18;47.41;100643.53;5051872;28;20437;-62
2023/05/19 12:22:13;;;;;;;3.08;1.75;;;;;;;17.90;49.68;100646.53;5051758;28;20041;-62
2023/05/19 12:24:40;;;;;;;5.65;1.98;;;;;;;17.88;49.32;100646.75;5050521;28;20040;-60
2023/05/19 12:27:06;;;;;;;4.20;2.20;;;;;;;17.64;49.10;100645.53;5051442;28;20037;-58
2023/05/19 12:29:31;;;;;;;4.07;2.08;;;;;;;17.72;49.30;100647.19;5051683;28;20492;-63
2023/05/19 12:31:57;;;;;;;3.40;2.10;;;;;;;17.64;49.85;100650.91;5051587;28;20045;-63
2023/05/19 12:34:22;;;;;;;3.92;1.52;;;;;;;17.61;49.37;100650.53;5051641;28;20079;-63
2023/05/19 12:36:48;;;;;;;4.03;1.85;;;;;;;17.58;50.63;100654.44;5051410;28;20040;-63
2023/05/19 12:39:14;;;;;;;3.47;1.83;;;;;;;17.49;49.67;100644.94;5051485;28;20052;-62
2023/05/19 12:41:39;;;;;;;3.83;2.08;;;;;;;17.22;50.13;100646.81;5051483;28;20078;-63
2023/05/19 12:44:14;;;;;;;2.28;1.80;;;;;;;17.33;51.05;100651.56;5055064;28;20139;-63
2023/05/19 12:46:40;;;;;;;4.03;1.98;;;;;;;17.22;50.63;100651.38;5055512;28;20037;-62
2023/05/19 12:49:05;;;;;;;2.58;1.60;;;;;;;17.22;52.00;100649.50;5055309;28;20108;-63
2023/05/19 12:51:31;;;;;;;3.22;2.05;;;;;;;17.28;51.25;100650.56;5055489;28;20076;-63
2023/05/19 12:53:56;;;;;;;5.15;2.25;;;;;;;17.21;50.87;100653.22;5055477;28;20106;-63
2023/05/19 12:56:25;;;;;;;4.68;2.47;;;;;;;17.26;50.34;100639.13;5055449;28;20037;-62
2023/05/19 12:58:54;;;;;;;5.10;2.42;;;;;;;17.23;51.33;100650.34;5055044;28;20036;-63
2023/05/19 13:01:21;;;;;;;8.20;1.95;;;;;;;17.25;51.34;100649.09;5055367;28;20470;-63
2023/05/19 13:03:47;;;;;;;3.42;1.80;;;;;;;17.20;51.76;100654.25;5055377;28;20036;-62
2023/05/19 13:06:12;;;;;;;4.45;1.65;;;;;;;17.23;51.23;100647.66;5055269;28;20091;-63
2023/05/19 13:08:38;;;;;;;4.38;1.73;;;;;;;17.25;51.04;100643.69;5054975;28;20033;-63
2023/05/19 13:11:04;;;;;;;6.63;2.10;;;;;;;17.22;51.05;100637.91;5053771;28;20037;-62
2023/05/19 13:13:29;;;;;;;9.23;2.17;;;;;;;17.27;53.17;100640.78;5053983;28;20037;-64
2023/05/19 13:15:55;;;;;;;4.97;2.40;;;;;;;17.25;50.59;100635.63;5055075;28;20029;-63
2023/05/19 13:18:20;;;;;;;3.70;2.08;;;;;;;17.31;51.17;100633.97;5054786;28;20455;-63
2023/05/19 13:20:48;;;;;;;3.90;1.80;;;;;;;17.32;52.53;100631.06;5054887;28;20056;-63
2023/05/19 13:23:14;;;;;;;3.08;2.08;;;;;;;17.34;50.82;100631.69;5054957;28;20052;-62
2023/05/19 13:25:40;;;;;;;3.50;2.15;;;;;;;17.36;52.39;100626.94;5055001;28;20510;-64
2023/05/19 13:28:06;;;;;;;4.47;2.45;;;;;;;17.39;50.46;100625.66;5054613;28;20068;-64
2023/05/19 13:30:33;;;;;;;2.70;2.10;;;;;;;17.43;52.71;100623.41;5054776;28;20032;-61
2023/05/19 13:32:59;;;;;;;8.27;2.50;;;;;;;17.40;51.26;100615.72;5054784;28;20130;-61
2023/05/19 13:35:24;;;;;;;2.40;2.00;;;;;;;17.75;50.37;100625.25;5054639;28;20065;-62
2023/05/19 13:37:49;;;;;;;6.05;1.95;;;;;;;17.77;50.60;100619.63;5054272;28;20482;-63
2023/05/19 13:40:16;;;;;;;3.10;1.70;;;;;;;17.63;50.74;100614.25;5054561;28;20072;-63
2023/05/19 13:42:42;;;;;;;4.95;1.80;;;;;;;17.87;49.67;100626.25;5054750;28;20049;-62
2023/05/19 13:45:08;;;;;;;4.75;1.95;;;;;;;17.69;50.19;100622.53;5054347;28;20036;-62
2023/05/19 13:47:34;;;;;;;3.40;1.92;;;;;;;17.87;50.81;100620.84;5054313;28;20041;-62
2023/05/19 13:49:59;;;;;;;4.82;2.35;;;;;;;17.74;51.24;100615.50;5054487;28;20037;-63
2023/05/19 13:52:25;;;;;;;6.13;2.10;;;;;;;17.73;51.46;100613.81;5053042;28;20041;-64
2023/05/19 13:54:53;;;;;;;4.95;2.65;;;;;;;17.77;51.73;100611.56;5053539;28;20036;-63
2023/05/19 13:57:18;;;;;;;4.70;2.78;;;;;;;17.86;50.78;100618.34;5053875;28;20474;-63
2023/05/19 13:59:44;;;;;;;4.28;2.05;;;;;;;17.97;50.30;100609.63;5054294;28;20060;-63
2023/05/19 14:02:09;;;;;;;3.03;2.15;;;;;;;17.89;50.01;100623.34;5054114;28;20112;-63
2023/05/19 14:04:38;;;;;;;3.53;1.98;;;;;;;17.86;50.44;100612.97;5054129;28;20532;-63
2023/05/19 14:07:05;;;;;;;4.35;2.10;;;;;;;17.92;50.68;100614.81;5053540;28;20113;-63
2023/05/19 14:09:30;;;;;;;4.75;2.00;;;;;;;17.98;49.97;100610.44;5052900;28;20036;-62
2023/05/19 14:11:56;;;;;;;3.72;1.80;;;;;;;17.87;51.50;100614.66;5053866;28;20445;-62
2023/05/19 14:14:21;;;;;;;5.15;2.15;;;;;;;17.99;50.62;100602.13;5053937;28;20040;-63
2023/05/19 14:16:47;;;;;;;3.83;1.98;;;;;;;17.99;50.48;100598.63;5053704;28;20041;-62
2023/05/19 14:19:13;;;;;;;2.72;2.10;;;;;;;17.92;52.58;100598.66;5053732;28;20045;-62
2023/05/19 14:21:38;;;;;;;3.47;1.80;;;;;;;17.92;50.16;100595.13;5053648;28;20044;-62
2023/05/19 14:24:04;;;;;;;2.15;1.55;;;;;;;18.06;50.17;100581.41;5053697;28;20147;-62
2023/05/19 14:26:30;;;;;;;2.38;1.80;;;;;;;18.09;50.20;100591.75;5053692;28;20047;-62
2023/05/19 14:28:55;;;;;;;4.05;2.10;;;;;;;17.85;49.94;100590.59;5053364;28;20052;-62
2023/05/19 14:31:21;;;;;;;3.60;2.03;;;;;;;18.05;49.39;100592.38;5053657;28;20055;-62
2023/05/19 14:33:46;;;;;;;4.30;1.60;;;;;;;18.11;50.46;100589.66;5053674;28;20032;-63
2023/05/19 14:36:12;;;;;;;2.05;1.63;;;;;;;18.08;52.64;100587.41;5053689;28;20029;-63
2023/05/19 14:38:37;;;;;;;4.50;2.20;;;;;;;18.15;50.51;100582.81;5053201;28;20465;-64
2023/05/19 14:41:03;;;;;;;4.28;1.95;;;;;;;18.31;50.55;100588.72;5053467;28;20452;-63
2023/05/19 14:43:28;;;;;;;5.00;1.88;;;;;;;18.00;51.05;100587.66;5053443;28;20063;-61
2023/05/19 14:45:54;;;;;;;4.60;2.05;;;;;;;18.15;50.28;100584.69;5051904;28;20045;-63
2023/05/19 14:48:19;;;;;;;2.67;1.90;;;;;;;18.02;50.13;100588.25;5052918;28;20044;-61
2023/05/19 14:50:48;;;;;;;3.58;2.00;;;;;;;18.03;49.75;100584.50;5053078;28;20043;-63
2023/05/19 14:53:13;;;;;;;4.05;2.00;;;;;;;18.02;49.98;100584.72;5053195;28;20132;-63
2023/05/19 14:55:39;;;;;;;3.10;1.80;;;;;;;17.70;52.57;100597.25;5053159;28;20119;-62
2023/05/19 14:58:05;;;;;;;6.93;1.80;;;;;;;17.78;52.84;100581.69;5052793;28;20071;-61
2023/05/19 15:00:30;;;;;;;2.33;1.75;;;;;;;17.79;51.79;100590.59;5053131;28;20032;-63
2023/05/19 15:02:55;;;;;;;4.35;2.15;;;;;;;17.72;53.25;100590.63;5053024;28;20383;-62
2023/05/19 15:05:22;;;;;;;3.83;2.17;;;;;;;17.71;51.91;100580.03;5051904;28;20111;-63
2023/05/19 15:07:48;;;;;;;2.15;1.80;;;;;;;17.93;51.52;100584.16;5052642;28;20129;-63
2023/05/19 15:10:15;;;;;;;2.65;1.70;;;;;;;17.92;50.97;100585.16;5053030;28;20128;-61
2023/05/19 15:12:40;;;;;;;3.92;1.83;;;;;;;17.83;50.21;100587.28;5052786;28;20122;-63
2023/05/19 15:15:06;;;;;;;5.60;2.20;;;;;;;17.75;50.63;100584.00;5052796;28;20505;-61
2023/05/19 15:17:32;;;;;;;3.92;2.15;;;;;;;17.69;50.71;100584.81;5052475;28;20552;-62
2023/05/19 15:19:57;;;;;;;2.65;1.80;;;;;;;17.91;50.65;100578.13;5043785;28;20037;-63
2023/05/19 15:22:22;;;;;;;4.57;1.98;;;;;;;17.86;50.65;100577.94;5032908;28;20502;-62
2023/05/19 15:24:48;;;;;;;2.95;1.77;;;;;;;17.81;50.93;100583.16;5015268;28;20083;-60
2023/05/19 15:27:13;;;;;;;4.55;1.88;;;;;;;17.79;50.47;100585.22;5032226;28;20033;-62
2023/05/19 15:29:39;;;;;;;4.45;2.25;;;;;;;17.70;50.96;100570.31;5032696;28;20072;-63
2023/05/19 15:32:04;;;;;;;4.78;1.73;;;;;;;17.78;50.86;100576.31;5032507;28;20132;-60
2023/05/19 15:34:30;;;;;;;2.97;1.50;;;;;;;17.79;51.38;100582.53;5032616;28;20037;-58
2023/05/19 15:36:55;;;;;;;4.22;1.90;;;;;;;17.69;51.26;100585.66;5031035;28;20049;-61
2023/05/19 15:39:21;;;;;;;3.55;1.92;;;;;;;17.61;51.49;100581.31;5032339;28;20046;-59
2023/05/19 15:41:46;;;;;;;4.28;2.10;;;;;;;17.51;52.00;100577.41;5032482;28;20040;-61
2023/05/19 15:44:11;;;;;;;3.25;1.65;;;;;;;17.62;53.54;100580.28;5032394;28;20506;-60
2023/05/19 15:46:37;;;;;;;5.35;1.80;;;;;;;17.73;51.57;100588.75;5031145;28;20132;-62
2023/05/19 15:49:03;;;;;;;4.07;1.67;;;;;;;17.62;51.11;100574.06;5031853;28;20077;-59